sensor_id;sensor_type;location;lat;lon;timestamp;pressure;altitude;pressure_sealevel;temperature
12875;BMP180;6505;51.114;13.128;2022-10-03T00:01:10;99890.00;;;18.60
12875;BMP180;6505;51.114;13.128;2022-10-03T00:03:54;99903.00;;;18.60
12875;BMP180;6505;51.114;13.128;2022-10-03T00:06:42;99900.00;;;18.60
12875;BMP180;6505;51.114;13.128;2022-10-03T00:09:32;99920.00;;;18.60
12875;BMP180;6505;51.114;13.128;2022-10-03T00:12:14;99915.00;;;18.60
12875;BMP180;6505;51.114;13.128;2022-10-03T00:15:00;99921.00;;;18.60
12875;BMP180;6505;51.114;13.128;2022-10-03T00:17:43;99918.00;;;18.60
12875;BMP180;6505;51.114;13.128;2022-10-03T00:21:00;99890.00;;;18.60
12875;BMP180;6505;51.114;13.128;2022-10-03T00:23:42;99928.00;;;18.60
12875;BMP180;6505;51.114;13.128;2022-10-03T00:26:23;99925.00;;;18.60
12875;BMP180;6505;51.114;13.128;2022-10-03T00:29:32;99937.00;;;18.60
12875;BMP180;6505;51.114;13.128;2022-10-03T00:32:22;99930.00;;;18.60
12875;BMP180;6505;51.114;13.128;2022-10-03T00:35:04;99928.00;;;18.60
12875;BMP180;6505;51.114;13.128;2022-10-03T00:38:00;99938.00;;;18.60
12875;BMP180;6505;51.114;13.128;2022-10-03T00:41:22;99944.00;;;18.50
12875;BMP180;6505;51.114;13.128;2022-10-03T00:44:45;99929.00;;;18.50
12875;BMP180;6505;51.114;13.128;2022-10-03T00:48:07;99939.00;;;18.50
12875;BMP180;6505;51.114;13.128;2022-10-03T00:51:00;99922.00;;;18.50
12875;BMP180;6505;51.114;13.128;2022-10-03T00:53:48;99947.00;;;18.50
12875;BMP180;6505;51.114;13.128;2022-10-03T00:56:46;99953.00;;;18.50
12875;BMP180;6505;51.114;13.128;2022-10-03T00:59:36;99951.00;;;18.50
12875;BMP180;6505;51.114;13.128;2022-10-03T01:02:33;99949.00;;;18.50
12875;BMP180;6505;51.114;13.128;2022-10-03T01:05:15;99941.00;;;18.50
12875;BMP180;6505;51.114;13.128;2022-10-03T01:08:08;99945.00;;;18.50
12875;BMP180;6505;51.114;13.128;2022-10-03T01:10:54;99951.00;;;18.50
12875;BMP180;6505;51.114;13.128;2022-10-03T01:13:38;99950.00;;;18.50
12875;BMP180;6505;51.114;13.128;2022-10-03T01:16:20;99948.00;;;18.50
12875;BMP180;6505;51.114;13.128;2022-10-03T01:19:07;99945.00;;;18.50
12875;BMP180;6505;51.114;13.128;2022-10-03T01:21:47;99946.00;;;18.50
12875;BMP180;6505;51.114;13.128;2022-10-03T01:24:49;99948.00;;;18.40
12875;BMP180;6505;51.114;13.128;2022-10-03T01:27:31;99943.00;;;18.50
12875;BMP180;6505;51.114;13.128;2022-10-03T01:30:30;99945.00;;;18.50
12875;BMP180;6505;51.114;13.128;2022-10-03T01:33:08;99944.00;;;18.50
12875;BMP180;6505;51.114;13.128;2022-10-03T01:35:48;99941.00;;;18.50
12875;BMP180;6505;51.114;13.128;2022-10-03T01:38:28;99951.00;;;18.50
12875;BMP180;6505;51.114;13.128;2022-10-03T01:41:07;99943.00;;;18.50
12875;BMP180;6505;51.114;13.128;2022-10-03T01:43:45;99949.00;;;18.50
12875;BMP180;6505;51.114;13.128;2022-10-03T01:46:21;99948.00;;;18.50
12875;BMP180;6505;51.114;13.128;2022-10-03T01:49:01;99962.00;;;18.50
12875;BMP180;6505;51.114;13.128;2022-10-03T01:51:44;99951.00;;;18.50
12875;BMP180;6505;51.114;13.128;2022-10-03T01:54:20;99955.00;;;18.50
12875;BMP180;6505;51.114;13.128;2022-10-03T01:56:59;99954.00;;;18.50
12875;BMP180;6505;51.114;13.128;2022-10-03T01:59:40;99966.00;;;18.50
12875;BMP180;6505;51.114;13.128;2022-10-03T02:02:20;99954.00;;;18.50
12875;BMP180;6505;51.114;13.128;2022-10-03T02:04:59;99959.00;;;18.50
12875;BMP180;6505;51.114;13.128;2022-10-03T02:07:41;99968.00;;;18.50
12875;BMP180;6505;51.114;13.128;2022-10-03T02:10:32;99952.00;;;18.50
12875;BMP180;6505;51.114;13.128;2022-10-03T02:13:12;99950.00;;;18.50
12875;BMP180;6505;51.114;13.128;2022-10-03T02:16:00;99948.00;;;18.50
12875;BMP180;6505;51.114;13.128;2022-10-03T02:18:42;99957.00;;;18.50
12875;BMP180;6505;51.114;13.128;2022-10-03T02:21:18;99966.00;;;18.50
12875;BMP180;6505;51.114;13.128;2022-10-03T02:23:49;99968.00;;;18.50
12875;BMP180;6505;51.114;13.128;2022-10-03T02:26:51;99970.00;;;18.40
12875;BMP180;6505;51.114;13.128;2022-10-03T02:29:49;99962.00;;;18.40
12875;BMP180;6505;51.114;13.128;2022-10-03T02:39:16;99977.00;;;18.40
12875;BMP180;6505;51.114;13.128;2022-10-03T02:42:31;99980.00;;;18.40
12875;BMP180;6505;51.114;13.128;2022-10-03T02:45:37;99977.00;;;18.40
12875;BMP180;6505;51.114;13.128;2022-10-03T02:51:58;99993.00;;;18.30
12875;BMP180;6505;51.114;13.128;2022-10-03T02:54:57;99995.00;;;18.30
12875;BMP180;6505;51.114;13.128;2022-10-03T02:58:13;99988.00;;;18.30
12875;BMP180;6505;51.114;13.128;2022-10-03T03:01:13;99997.00;;;18.30
12875;BMP180;6505;51.114;13.128;2022-10-03T03:04:08;100006.00;;;18.40
12875;BMP180;6505;51.114;13.128;2022-10-03T03:07:12;100003.00;;;18.30
12875;BMP180;6505;51.114;13.128;2022-10-03T03:10:21;100003.00;;;18.30
12875;BMP180;6505;51.114;13.128;2022-10-03T03:16:54;100014.00;;;18.30
12875;BMP180;6505;51.114;13.128;2022-10-03T03:19:43;100014.00;;;18.30
12875;BMP180;6505;51.114;13.128;2022-10-03T03:22:42;100018.00;;;18.30
12875;BMP180;6505;51.114;13.128;2022-10-03T03:25:34;100017.00;;;18.30
12875;BMP180;6505;51.114;13.128;2022-10-03T03:28:23;100024.00;;;18.30
12875;BMP180;6505;51.114;13.128;2022-10-03T03:31:08;100018.00;;;18.40
12875;BMP180;6505;51.114;13.128;2022-10-03T03:33:50;100009.00;;;18.40
12875;BMP180;6505;51.114;13.128;2022-10-03T03:36:31;100019.00;;;18.40
12875;BMP180;6505;51.114;13.128;2022-10-03T03:39:20;100029.00;;;18.30
12875;BMP180;6505;51.114;13.128;2022-10-03T03:42:08;100030.00;;;18.40
12875;BMP180;6505;51.114;13.128;2022-10-03T03:44:56;100012.00;;;18.40
12875;BMP180;6505;51.114;13.128;2022-10-03T03:48:00;100020.00;;;18.30
12875;BMP180;6505;51.114;13.128;2022-10-03T03:50:45;100022.00;;;18.40
12875;BMP180;6505;51.114;13.128;2022-10-03T03:56:53;100029.00;;;18.30
12875;BMP180;6505;51.114;13.128;2022-10-03T03:59:44;100034.00;;;18.30
12875;BMP180;6505;51.114;13.128;2022-10-03T04:02:32;100026.00;;;18.40
12875;BMP180;6505;51.114;13.128;2022-10-03T04:05:24;100030.00;;;18.40
12875;BMP180;6505;51.114;13.128;2022-10-03T04:08:16;100027.00;;;18.40
12875;BMP180;6505;51.114;13.128;2022-10-03T04:11:04;100035.00;;;18.40
12875;BMP180;6505;51.114;13.128;2022-10-03T04:13:56;100031.00;;;18.40
12875;BMP180;6505;51.114;13.128;2022-10-03T04:16:44;100024.00;;;18.40
12875;BMP180;6505;51.114;13.128;2022-10-03T04:19:54;100032.00;;;18.40
12875;BMP180;6505;51.114;13.128;2022-10-03T04:22:54;100037.00;;;18.40
12875;BMP180;6505;51.114;13.128;2022-10-03T04:25:45;100039.00;;;18.40
12875;BMP180;6505;51.114;13.128;2022-10-03T04:28:49;100040.00;;;18.40
12875;BMP180;6505;51.114;13.128;2022-10-03T04:31:38;100045.00;;;18.40
12875;BMP180;6505;51.114;13.128;2022-10-03T04:34:29;100036.00;;;18.40
12875;BMP180;6505;51.114;13.128;2022-10-03T04:37:20;100054.00;;;18.30
12875;BMP180;6505;51.114;13.128;2022-10-03T04:40:09;100040.00;;;18.30
12875;BMP180;6505;51.114;13.128;2022-10-03T04:42:58;100043.00;;;18.30
12875;BMP180;6505;51.114;13.128;2022-10-03T04:45:47;100033.00;;;18.30
12875;BMP180;6505;51.114;13.128;2022-10-03T04:48:28;100020.00;;;18.30
12875;BMP180;6505;51.114;13.128;2022-10-03T04:51:08;100044.00;;;18.30
12875;BMP180;6505;51.114;13.128;2022-10-03T04:53:49;100048.00;;;18.30
12875;BMP180;6505;51.114;13.128;2022-10-03T04:56:39;100048.00;;;18.30
12875;BMP180;6505;51.114;13.128;2022-10-03T04:59:34;100052.00;;;18.30
12875;BMP180;6505;51.114;13.128;2022-10-03T05:02:19;100053.00;;;18.30
12875;BMP180;6505;51.114;13.128;2022-10-03T05:05:13;100056.00;;;18.30
12875;BMP180;6505;51.114;13.128;2022-10-03T05:07:56;100061.00;;;18.30
12875;BMP180;6505;51.114;13.128;2022-10-03T05:10:54;100057.00;;;18.30
12875;BMP180;6505;51.114;13.128;2022-10-03T05:13:38;100043.00;;;18.30
12875;BMP180;6505;51.114;13.128;2022-10-03T05:16:18;100070.00;;;18.30
12875;BMP180;6505;51.114;13.128;2022-10-03T05:18:56;100067.00;;;18.30
12875;BMP180;6505;51.114;13.128;2022-10-03T05:21:36;100076.00;;;18.30
12875;BMP180;6505;51.114;13.128;2022-10-03T05:24:23;100077.00;;;18.30
12875;BMP180;6505;51.114;13.128;2022-10-03T05:26:59;100080.00;;;18.30
12875;BMP180;6505;51.114;13.128;2022-10-03T05:29:41;100079.00;;;18.30
12875;BMP180;6505;51.114;13.128;2022-10-03T05:32:22;100081.00;;;18.30
12875;BMP180;6505;51.114;13.128;2022-10-03T05:35:17;100087.00;;;18.30
12875;BMP180;6505;51.114;13.128;2022-10-03T05:38:17;100080.00;;;18.30
12875;BMP180;6505;51.114;13.128;2022-10-03T05:41:00;100081.00;;;18.30
12875;BMP180;6505;51.114;13.128;2022-10-03T05:43:54;100081.00;;;18.30
12875;BMP180;6505;51.114;13.128;2022-10-03T05:46:50;100093.00;;;18.30
12875;BMP180;6505;51.114;13.128;2022-10-03T05:49:48;100092.00;;;18.20
12875;BMP180;6505;51.114;13.128;2022-10-03T05:52:51;100092.00;;;18.30
12875;BMP180;6505;51.114;13.128;2022-10-03T05:55:52;100102.00;;;18.30
12875;BMP180;6505;51.114;13.128;2022-10-03T05:59:09;100102.00;;;18.20
12875;BMP180;6505;51.114;13.128;2022-10-03T06:02:16;100105.00;;;18.20
12875;BMP180;6505;51.114;13.128;2022-10-03T06:05:15;100101.00;;;18.20
12875;BMP180;6505;51.114;13.128;2022-10-03T06:08:31;100097.00;;;18.20
12875;BMP180;6505;51.114;13.128;2022-10-03T06:11:20;100105.00;;;18.20
12875;BMP180;6505;51.114;13.128;2022-10-03T06:14:30;100110.00;;;18.20
12875;BMP180;6505;51.114;13.128;2022-10-03T06:17:48;100109.00;;;18.20
12875;BMP180;6505;51.114;13.128;2022-10-03T06:20:54;100108.00;;;18.20
12875;BMP180;6505;51.114;13.128;2022-10-03T06:30:51;100132.00;;;18.20
12875;BMP180;6505;51.114;13.128;2022-10-03T06:33:56;100142.00;;;18.20
12875;BMP180;6505;51.114;13.128;2022-10-03T06:36:51;100139.00;;;18.20
12875;BMP180;6505;51.114;13.128;2022-10-03T06:39:55;100147.00;;;18.20
12875;BMP180;6505;51.114;13.128;2022-10-03T06:43:06;100139.00;;;18.20
12875;BMP180;6505;51.114;13.128;2022-10-03T06:46:41;100144.00;;;18.20
12875;BMP180;6505;51.114;13.128;2022-10-03T06:53:06;100150.00;;;18.20
12875;BMP180;6505;51.114;13.128;2022-10-03T06:56:25;100147.00;;;18.10
12875;BMP180;6505;51.114;13.128;2022-10-03T06:59:35;100144.00;;;18.20
12875;BMP180;6505;51.114;13.128;2022-10-03T07:06:05;100153.00;;;18.20
12875;BMP180;6505;51.114;13.128;2022-10-03T07:12:35;100157.00;;;18.20
12875;BMP180;6505;51.114;13.128;2022-10-03T07:16:03;100159.00;;;18.20
12875;BMP180;6505;51.114;13.128;2022-10-03T07:19:40;100170.00;;;18.20
12875;BMP180;6505;51.114;13.128;2022-10-03T07:23:17;100165.00;;;18.20
12875;BMP180;6505;51.114;13.128;2022-10-03T07:29:24;100176.00;;;18.20
12875;BMP180;6505;51.114;13.128;2022-10-03T07:32:36;100183.00;;;18.20
12875;BMP180;6505;51.114;13.128;2022-10-03T07:35:40;100185.00;;;18.20
12875;BMP180;6505;51.114;13.128;2022-10-03T07:39:05;100188.00;;;18.20
12875;BMP180;6505;51.114;13.128;2022-10-03T07:45:27;100202.00;;;18.20
12875;BMP180;6505;51.114;13.128;2022-10-03T07:48:54;100196.00;;;18.20
12875;BMP180;6505;51.114;13.128;2022-10-03T07:51:35;100203.00;;;18.20
12875;BMP180;6505;51.114;13.128;2022-10-03T07:54:51;100210.00;;;18.20
12875;BMP180;6505;51.114;13.128;2022-10-03T07:57:43;100209.00;;;18.20
12875;BMP180;6505;51.114;13.128;2022-10-03T08:00:22;100218.00;;;18.20
12875;BMP180;6505;51.114;13.128;2022-10-03T08:03:40;100210.00;;;18.20
12875;BMP180;6505;51.114;13.128;2022-10-03T08:06:21;100212.00;;;18.30
12875;BMP180;6505;51.114;13.128;2022-10-03T08:09:29;100215.00;;;18.20
12875;BMP180;6505;51.114;13.128;2022-10-03T08:15:29;100212.00;;;18.30
12875;BMP180;6505;51.114;13.128;2022-10-03T08:18:35;100222.00;;;18.30
12875;BMP180;6505;51.114;13.128;2022-10-03T08:21:19;100216.00;;;18.30
12875;BMP180;6505;51.114;13.128;2022-10-03T08:24:28;100208.00;;;18.30
12875;BMP180;6505;51.114;13.128;2022-10-03T08:27:33;100214.00;;;18.30
12875;BMP180;6505;51.114;13.128;2022-10-03T08:30:21;100211.00;;;18.30
12875;BMP180;6505;51.114;13.128;2022-10-03T08:36:53;100222.00;;;18.30
12875;BMP180;6505;51.114;13.128;2022-10-03T08:39:44;100220.00;;;18.40
12875;BMP180;6505;51.114;13.128;2022-10-03T08:42:57;100223.00;;;18.40
12875;BMP180;6505;51.114;13.128;2022-10-03T08:46:16;100227.00;;;18.40
12875;BMP180;6505;51.114;13.128;2022-10-03T08:49:16;100241.00;;;18.40
12875;BMP180;6505;51.114;13.128;2022-10-03T08:52:13;100241.00;;;18.40
12875;BMP180;6505;51.114;13.128;2022-10-03T08:55:28;100238.00;;;18.40
12875;BMP180;6505;51.114;13.128;2022-10-03T08:58:28;100239.00;;;18.40
12875;BMP180;6505;51.114;13.128;2022-10-03T09:11:29;100231.00;;;18.40
12875;BMP180;6505;51.114;13.128;2022-10-03T09:14:31;100236.00;;;18.50
12875;BMP180;6505;51.114;13.128;2022-10-03T09:24:24;100238.00;;;18.50
12875;BMP180;6505;51.114;13.128;2022-10-03T09:27:31;100228.00;;;18.50
12875;BMP180;6505;51.114;13.128;2022-10-03T09:30:22;100240.00;;;18.50
12875;BMP180;6505;51.114;13.128;2022-10-03T09:33:41;100238.00;;;18.50
12875;BMP180;6505;51.114;13.128;2022-10-03T09:40:15;100239.00;;;18.50
12875;BMP180;6505;51.114;13.128;2022-10-03T09:43:23;100238.00;;;18.50
12875;BMP180;6505;51.114;13.128;2022-10-03T09:53:39;100244.00;;;18.60
12875;BMP180;6505;51.114;13.128;2022-10-03T09:57:04;100254.00;;;18.60
12875;BMP180;6505;51.114;13.128;2022-10-03T09:59:57;100254.00;;;18.60
12875;BMP180;6505;51.114;13.128;2022-10-03T10:03:36;100242.00;;;18.60
12875;BMP180;6505;51.114;13.128;2022-10-03T10:06:34;100249.00;;;18.70
12875;BMP180;6505;51.114;13.128;2022-10-03T10:09:53;100240.00;;;18.60
12875;BMP180;6505;51.114;13.128;2022-10-03T10:19:27;100239.00;;;18.70
12875;BMP180;6505;51.114;13.128;2022-10-03T10:29:14;100236.00;;;18.70
12875;BMP180;6505;51.114;13.128;2022-10-03T10:32:44;100230.00;;;18.70
12875;BMP180;6505;51.114;13.128;2022-10-03T10:42:56;100236.00;;;18.80
12875;BMP180;6505;51.114;13.128;2022-10-03T10:46:30;100229.00;;;18.90
12875;BMP180;6505;51.114;13.128;2022-10-03T10:56:32;100227.00;;;18.90
12875;BMP180;6505;51.114;13.128;2022-10-03T11:03:37;100239.00;;;18.90
12875;BMP180;6505;51.114;13.128;2022-10-03T11:09:51;100241.00;;;19.00
12875;BMP180;6505;51.114;13.128;2022-10-03T11:13:20;100227.00;;;19.00
12875;BMP180;6505;51.114;13.128;2022-10-03T11:16:53;100233.00;;;19.00
12875;BMP180;6505;51.114;13.128;2022-10-03T11:20:14;100236.00;;;18.90
12875;BMP180;6505;51.114;13.128;2022-10-03T11:23:44;100238.00;;;19.10
12875;BMP180;6505;51.114;13.128;2022-10-03T11:30:06;100228.00;;;19.10
12875;BMP180;6505;51.114;13.128;2022-10-03T11:36:45;100230.00;;;19.20
12875;BMP180;6505;51.114;13.128;2022-10-03T11:39:26;100233.00;;;19.20
12875;BMP180;6505;51.114;13.128;2022-10-03T11:42:05;100227.00;;;19.20
12875;BMP180;6505;51.114;13.128;2022-10-03T11:44:45;100228.00;;;19.20
12875;BMP180;6505;51.114;13.128;2022-10-03T11:47:54;100219.00;;;19.30
12875;BMP180;6505;51.114;13.128;2022-10-03T11:50:41;100236.00;;;19.30
12875;BMP180;6505;51.114;13.128;2022-10-03T11:53:22;100239.00;;;19.30
12875;BMP180;6505;51.114;13.128;2022-10-03T11:56:13;100235.00;;;19.30
12875;BMP180;6505;51.114;13.128;2022-10-03T11:59:06;100235.00;;;19.40
12875;BMP180;6505;51.114;13.128;2022-10-03T12:01:55;100236.00;;;19.40
12875;BMP180;6505;51.114;13.128;2022-10-03T12:04:37;100243.00;;;19.40
12875;BMP180;6505;51.114;13.128;2022-10-03T12:07:36;100231.00;;;19.40
12875;BMP180;6505;51.114;13.128;2022-10-03T12:10:38;100242.00;;;19.40
12875;BMP180;6505;51.114;13.128;2022-10-03T12:13:13;100242.00;;;19.40
12875;BMP180;6505;51.114;13.128;2022-10-03T12:15:47;100226.00;;;19.50
12875;BMP180;6505;51.114;13.128;2022-10-03T12:18:27;100218.00;;;19.50
12875;BMP180;6505;51.114;13.128;2022-10-03T12:21:08;100231.00;;;19.50
12875;BMP180;6505;51.114;13.128;2022-10-03T12:24:20;100235.00;;;19.50
12875;BMP180;6505;51.114;13.128;2022-10-03T12:27:01;100225.00;;;19.50
12875;BMP180;6505;51.114;13.128;2022-10-03T12:29:35;100233.00;;;19.50
12875;BMP180;6505;51.114;13.128;2022-10-03T12:32:24;100235.00;;;19.60
12875;BMP180;6505;51.114;13.128;2022-10-03T12:35:14;100227.00;;;19.60
12875;BMP180;6505;51.114;13.128;2022-10-03T12:38:01;100205.00;;;19.60
12875;BMP180;6505;51.114;13.128;2022-10-03T12:40:39;100235.00;;;19.60
12875;BMP180;6505;51.114;13.128;2022-10-03T12:43:32;100241.00;;;19.60
12875;BMP180;6505;51.114;13.128;2022-10-03T12:46:13;100237.00;;;19.60
12875;BMP180;6505;51.114;13.128;2022-10-03T12:48:50;100245.00;;;19.70
12875;BMP180;6505;51.114;13.128;2022-10-03T12:51:46;100218.00;;;19.70
12875;BMP180;6505;51.114;13.128;2022-10-03T12:54:42;100225.00;;;19.70
12875;BMP180;6505;51.114;13.128;2022-10-03T12:57:49;100232.00;;;19.70
12875;BMP180;6505;51.114;13.128;2022-10-03T13:00:23;100225.00;;;19.60
12875;BMP180;6505;51.114;13.128;2022-10-03T13:03:15;100224.00;;;19.70
12875;BMP180;6505;51.114;13.128;2022-10-03T13:06:24;100233.00;;;19.70
12875;BMP180;6505;51.114;13.128;2022-10-03T13:09:25;100229.00;;;19.70
12875;BMP180;6505;51.114;13.128;2022-10-03T13:12:06;100221.00;;;19.70
12875;BMP180;6505;51.114;13.128;2022-10-03T13:17:58;100213.00;;;19.70
12875;BMP180;6505;51.114;13.128;2022-10-03T13:20:34;100222.00;;;19.80
12875;BMP180;6505;51.114;13.128;2022-10-03T13:23:18;100221.00;;;19.80
12875;BMP180;6505;51.114;13.128;2022-10-03T13:26:05;100228.00;;;19.80
12875;BMP180;6505;51.114;13.128;2022-10-03T13:29:09;100209.00;;;19.80
12875;BMP180;6505;51.114;13.128;2022-10-03T13:31:58;100215.00;;;19.80
12875;BMP180;6505;51.114;13.128;2022-10-03T13:34:34;100215.00;;;19.80
12875;BMP180;6505;51.114;13.128;2022-10-03T13:37:11;100207.00;;;19.80
12875;BMP180;6505;51.114;13.128;2022-10-03T13:39:47;100208.00;;;19.90
12875;BMP180;6505;51.114;13.128;2022-10-03T13:42:20;100207.00;;;19.90
12875;BMP180;6505;51.114;13.128;2022-10-03T13:44:53;100203.00;;;19.90
12875;BMP180;6505;51.114;13.128;2022-10-03T13:47:42;100204.00;;;19.90
12875;BMP180;6505;51.114;13.128;2022-10-03T13:50:23;100201.00;;;19.90
12875;BMP180;6505;51.114;13.128;2022-10-03T13:52:59;100204.00;;;19.90
12875;BMP180;6505;51.114;13.128;2022-10-03T13:55:41;100200.00;;;19.90
12875;BMP180;6505;51.114;13.128;2022-10-03T13:58:32;100209.00;;;19.90
12875;BMP180;6505;51.114;13.128;2022-10-03T14:01:30;100212.00;;;19.80
12875;BMP180;6505;51.114;13.128;2022-10-03T14:04:34;100208.00;;;19.90
12875;BMP180;6505;51.114;13.128;2022-10-03T14:07:14;100221.00;;;19.90
12875;BMP180;6505;51.114;13.128;2022-10-03T14:10:14;100212.00;;;19.90
12875;BMP180;6505;51.114;13.128;2022-10-03T14:13:14;100213.00;;;19.90
12875;BMP180;6505;51.114;13.128;2022-10-03T14:15:51;100217.00;;;19.80
12875;BMP180;6505;51.114;13.128;2022-10-03T14:18:38;100209.00;;;19.90
12875;BMP180;6505;51.114;13.128;2022-10-03T14:24:44;100228.00;;;19.90
12875;BMP180;6505;51.114;13.128;2022-10-03T14:27:40;100215.00;;;19.90
12875;BMP180;6505;51.114;13.128;2022-10-03T14:30:13;100220.00;;;20.00
12875;BMP180;6505;51.114;13.128;2022-10-03T14:33:12;100210.00;;;19.90
12875;BMP180;6505;51.114;13.128;2022-10-03T14:35:54;100206.00;;;20.00
12875;BMP180;6505;51.114;13.128;2022-10-03T14:38:53;100195.00;;;20.00
12875;BMP180;6505;51.114;13.128;2022-10-03T14:41:44;100191.00;;;20.00
12875;BMP180;6505;51.114;13.128;2022-10-03T14:44:19;100200.00;;;20.00
12875;BMP180;6505;51.114;13.128;2022-10-03T14:46:54;100200.00;;;20.00
12875;BMP180;6505;51.114;13.128;2022-10-03T14:49:28;100195.00;;;20.00
12875;BMP180;6505;51.114;13.128;2022-10-03T14:52:28;100199.00;;;20.00
12875;BMP180;6505;51.114;13.128;2022-10-03T14:55:07;100196.00;;;20.00
12875;BMP180;6505;51.114;13.128;2022-10-03T14:57:45;100206.00;;;20.00
12875;BMP180;6505;51.114;13.128;2022-10-03T15:00:41;100212.00;;;20.00
12875;BMP180;6505;51.114;13.128;2022-10-03T15:03:22;100206.00;;;20.00
12875;BMP180;6505;51.114;13.128;2022-10-03T15:08:51;100207.00;;;20.00
12875;BMP180;6505;51.114;13.128;2022-10-03T15:11:26;100198.00;;;20.10
12875;BMP180;6505;51.114;13.128;2022-10-03T15:13:59;100203.00;;;20.10
12875;BMP180;6505;51.114;13.128;2022-10-03T15:16:33;100199.00;;;20.10
12875;BMP180;6505;51.114;13.128;2022-10-03T15:19:08;100191.00;;;20.10
12875;BMP180;6505;51.114;13.128;2022-10-03T15:21:43;100191.00;;;20.10
12875;BMP180;6505;51.114;13.128;2022-10-03T15:24:20;100191.00;;;20.10
12875;BMP180;6505;51.114;13.128;2022-10-03T15:26:58;100199.00;;;20.10
12875;BMP180;6505;51.114;13.128;2022-10-03T15:29:31;100194.00;;;20.10
12875;BMP180;6505;51.114;13.128;2022-10-03T15:32:04;100191.00;;;20.10
12875;BMP180;6505;51.114;13.128;2022-10-03T15:34:38;100191.00;;;20.10
12875;BMP180;6505;51.114;13.128;2022-10-03T15:37:16;100192.00;;;20.10
12875;BMP180;6505;51.114;13.128;2022-10-03T15:39:46;100188.00;;;20.20
12875;BMP180;6505;51.114;13.128;2022-10-03T15:42:28;100199.00;;;20.10
12875;BMP180;6505;51.114;13.128;2022-10-03T15:45:01;100203.00;;;20.10
12875;BMP180;6505;51.114;13.128;2022-10-03T15:47:34;100206.00;;;20.10
12875;BMP180;6505;51.114;13.128;2022-10-03T15:50:13;100204.00;;;20.10
12875;BMP180;6505;51.114;13.128;2022-10-03T15:52:49;100194.00;;;20.10
12875;BMP180;6505;51.114;13.128;2022-10-03T15:55:24;100194.00;;;20.10
12875;BMP180;6505;51.114;13.128;2022-10-03T15:58:03;100186.00;;;20.10
12875;BMP180;6505;51.114;13.128;2022-10-03T16:00:36;100197.00;;;20.10
12875;BMP180;6505;51.114;13.128;2022-10-03T16:03:13;100190.00;;;20.10
12875;BMP180;6505;51.114;13.128;2022-10-03T16:05:54;100188.00;;;20.10
12875;BMP180;6505;51.114;13.128;2022-10-03T16:08:31;100184.00;;;20.10
12875;BMP180;6505;51.114;13.128;2022-10-03T16:11:08;100182.00;;;20.10
12875;BMP180;6505;51.114;13.128;2022-10-03T16:13:43;100183.00;;;20.10
12875;BMP180;6505;51.114;13.128;2022-10-03T16:16:19;100179.00;;;20.10
12875;BMP180;6505;51.114;13.128;2022-10-03T16:18:58;100183.00;;;20.10
12875;BMP180;6505;51.114;13.128;2022-10-03T16:21:46;100192.00;;;19.90
12875;BMP180;6505;51.114;13.128;2022-10-03T16:24:26;100189.00;;;20.10
12875;BMP180;6505;51.114;13.128;2022-10-03T16:27:07;100198.00;;;20.10
12875;BMP180;6505;51.114;13.128;2022-10-03T16:29:44;100190.00;;;20.10
12875;BMP180;6505;51.114;13.128;2022-10-03T16:32:21;100192.00;;;20.10
12875;BMP180;6505;51.114;13.128;2022-10-03T16:34:51;100198.00;;;20.20
12875;BMP180;6505;51.114;13.128;2022-10-03T16:37:24;100195.00;;;20.00
12875;BMP180;6505;51.114;13.128;2022-10-03T16:40:00;100203.00;;;20.20
12875;BMP180;6505;51.114;13.128;2022-10-03T16:42:38;100198.00;;;20.10
12875;BMP180;6505;51.114;13.128;2022-10-03T16:45:22;100200.00;;;20.10
12875;BMP180;6505;51.114;13.128;2022-10-03T16:47:59;100196.00;;;20.10
12875;BMP180;6505;51.114;13.128;2022-10-03T16:50:50;100195.00;;;20.10
12875;BMP180;6505;51.114;13.128;2022-10-03T16:53:21;100200.00;;;20.10
12875;BMP180;6505;51.114;13.128;2022-10-03T16:55:54;100184.00;;;20.10
12875;BMP180;6505;51.114;13.128;2022-10-03T16:58:30;100193.00;;;20.10
12875;BMP180;6505;51.114;13.128;2022-10-03T17:01:03;100195.00;;;20.20
12875;BMP180;6505;51.114;13.128;2022-10-03T17:04:05;100207.00;;;20.10
12875;BMP180;6505;51.114;13.128;2022-10-03T17:06:37;100207.00;;;20.10
12875;BMP180;6505;51.114;13.128;2022-10-03T17:09:25;100205.00;;;20.10
12875;BMP180;6505;51.114;13.128;2022-10-03T17:11:59;100198.00;;;20.10
12875;BMP180;6505;51.114;13.128;2022-10-03T17:14:34;100203.00;;;20.10
12875;BMP180;6505;51.114;13.128;2022-10-03T17:21:19;100208.00;;;20.00
12875;BMP180;6505;51.114;13.128;2022-10-03T17:24:01;100215.00;;;20.00
12875;BMP180;6505;51.114;13.128;2022-10-03T17:26:36;100212.00;;;20.00
12875;BMP180;6505;51.114;13.128;2022-10-03T17:29:15;100214.00;;;20.00
12875;BMP180;6505;51.114;13.128;2022-10-03T17:31:52;100218.00;;;20.10
12875;BMP180;6505;51.114;13.128;2022-10-03T17:34:31;100228.00;;;20.10
12875;BMP180;6505;51.114;13.128;2022-10-03T17:37:40;100231.00;;;20.00
12875;BMP180;6505;51.114;13.128;2022-10-03T17:40:20;100237.00;;;20.00
12875;BMP180;6505;51.114;13.128;2022-10-03T17:42:55;100255.00;;;20.00
12875;BMP180;6505;51.114;13.128;2022-10-03T17:45:32;100248.00;;;20.00
12875;BMP180;6505;51.114;13.128;2022-10-03T17:48:15;100254.00;;;20.00
12875;BMP180;6505;51.114;13.128;2022-10-03T17:51:00;100254.00;;;20.00
12875;BMP180;6505;51.114;13.128;2022-10-03T17:53:46;100251.00;;;20.00
12875;BMP180;6505;51.114;13.128;2022-10-03T17:56:22;100251.00;;;20.00
12875;BMP180;6505;51.114;13.128;2022-10-03T17:59:00;100257.00;;;19.90
12875;BMP180;6505;51.114;13.128;2022-10-03T18:01:35;100253.00;;;19.90
12875;BMP180;6505;51.114;13.128;2022-10-03T18:04:16;100259.00;;;19.90
12875;BMP180;6505;51.114;13.128;2022-10-03T18:06:47;100259.00;;;19.90
12875;BMP180;6505;51.114;13.128;2022-10-03T18:09:27;100250.00;;;19.90
12875;BMP180;6505;51.114;13.128;2022-10-03T18:12:08;100250.00;;;19.90
12875;BMP180;6505;51.114;13.128;2022-10-03T18:15:14;100238.00;;;19.90
12875;BMP180;6505;51.114;13.128;2022-10-03T18:18:06;100244.00;;;19.90
12875;BMP180;6505;51.114;13.128;2022-10-03T18:20:48;100237.00;;;19.90
12875;BMP180;6505;51.114;13.128;2022-10-03T18:23:22;100239.00;;;19.90